createdAt,value
2019-03-03T00:02:28.235Z,20.00
2019-03-03T00:15:51.082Z,20.00
2019-03-03T00:42:48.857Z,20.00
2019-03-03T00:55:56.257Z,20.00
2019-03-03T01:22:07.626Z,20.00
2019-03-03T01:35:15.033Z,20.10
2019-03-03T01:48:22.350Z,20.00
2019-03-03T02:01:29.679Z,20.00
2019-03-03T02:27:39.817Z,20.00
2019-03-03T02:40:47.135Z,20.00
2019-03-03T02:53:54.496Z,20.10
2019-03-03T03:07:01.821Z,20.10
2019-03-03T03:20:09.207Z,20.10
2019-03-03T03:33:33.058Z,20.10
2019-03-03T03:46:55.875Z,20.10
2019-03-03T04:00:18.743Z,20.10
2019-03-03T04:13:41.516Z,20.10
2019-03-03T04:27:04.379Z,20.10
2019-03-03T04:40:27.188Z,20.10
2019-03-03T04:53:50.016Z,20.10
2019-03-03T05:07:12.789Z,20.10
2019-03-03T05:20:35.642Z,20.00
2019-03-03T05:33:58.433Z,20.00
2019-03-03T05:47:21.229Z,20.00
2019-03-03T06:13:45.755Z,20.00
2019-03-03T06:26:53.097Z,20.00
2019-03-03T06:40:00.509Z,20.00
2019-03-03T06:53:07.897Z,20.00
2019-03-03T07:06:15.253Z,19.90
2019-03-03T07:19:39.010Z,20.00
2019-03-03T07:33:01.829Z,20.00
2019-03-03T07:46:24.673Z,20.00
2019-03-03T07:59:47.452Z,19.90
2019-03-03T08:13:10.290Z,19.80
2019-03-03T08:26:33.062Z,19.80
2019-03-03T08:39:55.886Z,19.70
2019-03-03T08:53:18.724Z,19.70
2019-03-03T09:06:41.549Z,19.60
2019-03-03T09:20:04.348Z,19.70
2019-03-03T09:33:27.193Z,19.90
2019-03-03T09:46:49.996Z,20.10
2019-03-03T10:00:12.783Z,20.20
2019-03-03T10:26:37.276Z,20.20
2019-03-03T11:05:56.665Z,20.30
2019-03-03T11:19:04.004Z,20.40
2019-03-03T11:32:11.346Z,20.40
2019-03-03T11:45:18.704Z,20.50
2019-03-03T11:58:25.996Z,20.50
2019-03-03T12:24:51.768Z,20.50
2019-03-03T12:37:59.125Z,20.50
2019-03-03T12:51:06.598Z,20.60
2019-03-03T13:04:13.962Z,20.60
2019-03-03T13:31:17.696Z,20.70
2019-03-03T13:44:40.428Z,20.70
2019-03-03T13:58:03.265Z,20.80
2019-03-03T14:11:26.171Z,20.60
2019-03-03T14:37:50.636Z,20.80
2019-03-03T14:50:57.949Z,20.80
2019-03-03T15:04:05.261Z,20.80
2019-03-03T15:17:12.707Z,20.70
2019-03-03T15:30:20.049Z,20.80
2019-03-03T15:43:43.882Z,20.80
2019-03-03T15:57:06.682Z,20.80
2019-03-03T16:10:29.525Z,20.80
2019-03-03T16:23:52.362Z,20.80
2019-03-03T16:50:16.853Z,20.80
2019-03-03T17:03:24.209Z,20.90
2019-03-03T17:16:31.970Z,20.80
2019-03-03T17:29:39.453Z,20.80
2019-03-03T17:43:04.058Z,20.80
2019-03-03T18:09:28.685Z,20.80
2019-03-03T18:22:36.042Z,20.30
2019-03-03T18:35:43.550Z,20.20
2019-03-03T18:48:50.957Z,20.40
2019-03-03T19:02:15.187Z,20.20
2019-03-03T19:15:37.987Z,20.20
2019-03-03T19:29:00.828Z,20.40
2019-03-03T19:42:23.494Z,20.40
2019-03-03T19:55:46.336Z,20.40
2019-03-03T20:09:09.132Z,20.40
2019-03-03T20:22:31.965Z,20.30
2019-03-03T20:35:54.750Z,20.30
2019-03-03T20:49:17.608Z,20.30
2019-03-03T21:02:40.422Z,20.30
2019-03-03T21:16:03.220Z,20.30
2019-03-03T21:29:26.031Z,20.30
2019-03-03T21:42:48.873Z,20.30
2019-03-03T21:56:11.734Z,20.30
2019-03-03T22:09:34.643Z,20.30
2019-03-03T22:22:57.293Z,20.30
2019-03-03T22:36:20.097Z,20.40
2019-03-03T22:49:42.914Z,20.50
2019-03-03T23:03:05.749Z,20.50
2019-03-03T23:16:28.544Z,20.50
2019-03-03T23:29:51.389Z,20.50
2019-03-03T23:43:14.173Z,20.50
2019-03-03T23:56:36.999Z,20.50
